createdAt,value
2022-12-22T00:00:23.426Z,2.50
2022-12-22T00:03:08.813Z,1.83
2022-12-22T00:05:54.160Z,1.60
2022-12-22T00:08:39.357Z,1.90
2022-12-22T00:11:30.069Z,1.23
2022-12-22T00:14:15.530Z,1.40
2022-12-22T00:17:00.733Z,1.70
2022-12-22T00:19:47.514Z,1.40
2022-12-22T00:22:37.924Z,1.10
2022-12-22T00:25:23.661Z,0.70
2022-12-22T00:28:09.207Z,1.90
2022-12-22T00:30:55.454Z,1.47
2022-12-22T00:33:41.125Z,1.23
2022-12-22T00:36:29.871Z,0.80
2022-12-22T00:39:15.213Z,1.30
2022-12-22T00:42:00.370Z,1.10
2022-12-22T00:44:45.839Z,1.60
2022-12-22T00:47:47.810Z,0.93
2022-12-22T00:50:34.641Z,1.10
2022-12-22T00:53:21.559Z,1.10
2022-12-22T00:56:06.700Z,1.70
2022-12-22T00:58:53.341Z,1.00
2022-12-22T01:01:38.800Z,1.00
2022-12-22T01:04:23.951Z,1.10
2022-12-22T01:07:09.107Z,0.90
2022-12-22T01:09:54.227Z,0.80
2022-12-22T01:12:43.476Z,0.80
2022-12-22T01:15:37.948Z,1.05
2022-12-22T01:18:24.713Z,1.00
2022-12-22T01:21:11.276Z,1.17
2022-12-22T01:23:57.372Z,1.20
2022-12-22T01:26:42.655Z,2.10
2022-12-22T01:29:28.056Z,2.27
2022-12-22T01:32:13.728Z,2.03
2022-12-22T01:34:59.278Z,2.60
2022-12-22T01:37:44.343Z,2.90
2022-12-22T01:40:38.818Z,1.50
2022-12-22T01:43:38.374Z,1.42
2022-12-22T01:46:55.012Z,0.80
2022-12-22T01:49:44.658Z,1.37
2022-12-22T01:52:31.821Z,1.20
2022-12-22T01:55:22.425Z,0.82
2022-12-22T01:58:07.668Z,0.80
2022-12-22T02:00:52.896Z,0.90
2022-12-22T02:03:40.922Z,0.90
2022-12-22T02:07:00.450Z,0.73
2022-12-22T02:10:18.841Z,0.80
2022-12-22T02:13:17.304Z,0.70
2022-12-22T02:16:12.166Z,1.00
2022-12-22T02:19:07.720Z,1.00
2022-12-22T02:22:06.354Z,1.10
2022-12-22T02:25:00.201Z,1.05
2022-12-22T02:27:47.010Z,1.80
2022-12-22T02:30:32.583Z,1.67
2022-12-22T02:33:17.789Z,1.60
2022-12-22T02:36:05.875Z,1.57
2022-12-22T02:39:04.273Z,1.10
2022-12-22T02:42:20.198Z,1.70
2022-12-22T02:45:12.390Z,1.38
2022-12-22T02:48:17.812Z,1.63
2022-12-22T02:51:21.858Z,1.50
2022-12-22T02:54:07.095Z,0.70
2022-12-22T02:56:52.443Z,1.08
2022-12-22T02:59:37.700Z,0.80
2022-12-22T03:02:22.963Z,0.80
2022-12-22T03:05:07.990Z,1.33
2022-12-22T03:07:53.147Z,0.75
2022-12-22T03:10:38.283Z,0.90
2022-12-22T03:13:23.459Z,0.50
2022-12-22T03:16:08.681Z,0.68
2022-12-22T03:18:53.923Z,0.80
2022-12-22T03:21:39.231Z,0.40
2022-12-22T03:24:25.253Z,0.60
2022-12-22T03:26:51.848Z,0.50
2022-12-22T03:29:18.527Z,0.50
2022-12-22T03:31:45.369Z,0.40
2022-12-22T03:34:11.977Z,0.50
2022-12-22T03:36:38.564Z,0.50
2022-12-22T03:39:05.225Z,0.50
2022-12-22T03:41:50.507Z,0.40
2022-12-22T03:44:35.758Z,0.70
2022-12-22T03:47:02.379Z,0.68
2022-12-22T03:49:29.030Z,0.70
2022-12-22T03:51:55.637Z,0.73
2022-12-22T03:54:24.423Z,0.50
2022-12-22T03:56:52.138Z,0.50
2022-12-22T03:59:19.357Z,0.50
2022-12-22T04:01:52.213Z,0.52
2022-12-22T04:04:23.094Z,0.60
2022-12-22T04:06:50.127Z,0.45
2022-12-22T04:09:17.143Z,0.50
2022-12-22T04:12:02.360Z,0.47
2022-12-22T04:14:33.889Z,0.40
2022-12-22T04:17:02.137Z,0.52
2022-12-22T04:19:28.747Z,0.50
2022-12-22T04:21:55.504Z,0.50
2022-12-22T04:24:22.392Z,0.50
2022-12-22T04:26:50.094Z,0.50
2022-12-22T04:29:16.820Z,0.50
2022-12-22T04:31:44.276Z,0.52
2022-12-22T04:34:11.198Z,0.40
2022-12-22T04:36:37.789Z,0.32
2022-12-22T04:39:04.334Z,0.40
2022-12-22T04:41:30.893Z,0.35
2022-12-22T04:43:57.475Z,0.50
2022-12-22T04:46:24.143Z,0.38
2022-12-22T04:48:56.016Z,0.43
2022-12-22T04:51:26.130Z,0.50
2022-12-22T04:53:52.755Z,0.50
2022-12-22T04:56:19.345Z,0.57
2022-12-22T04:58:45.953Z,0.40
2022-12-22T05:01:15.812Z,0.50
2022-12-22T05:03:42.673Z,0.40
2022-12-22T05:06:10.203Z,0.90
2022-12-22T05:08:37.352Z,0.60
2022-12-22T05:11:04.058Z,0.50
2022-12-22T05:13:31.752Z,0.50
2022-12-22T05:16:13.194Z,0.50
2022-12-22T05:18:41.689Z,0.35
2022-12-22T05:21:14.704Z,0.30
2022-12-22T05:23:41.622Z,0.38
2022-12-22T05:26:08.280Z,0.40
2022-12-22T05:28:35.164Z,0.40
2022-12-22T05:31:09.964Z,0.30
2022-12-22T05:33:36.801Z,0.40
2022-12-22T05:36:04.091Z,0.50
2022-12-22T05:38:30.664Z,0.43
2022-12-22T05:41:03.589Z,0.45
2022-12-22T05:43:31.580Z,0.40
2022-12-22T05:46:01.924Z,0.40
2022-12-22T05:48:35.339Z,0.30
2022-12-22T05:51:04.749Z,0.45
2022-12-22T05:53:32.121Z,0.57
2022-12-22T05:55:59.421Z,0.40
2022-12-22T05:58:26.898Z,0.30
2022-12-22T06:00:57.617Z,0.40
2022-12-22T06:03:28.452Z,0.35
2022-12-22T06:05:55.779Z,0.50
2022-12-22T06:08:23.458Z,0.43
2022-12-22T06:10:50.103Z,0.47
2022-12-22T06:13:16.782Z,0.40
2022-12-22T06:15:43.402Z,0.30
2022-12-22T06:18:10.035Z,0.30
2022-12-22T06:20:36.617Z,0.50
2022-12-22T06:23:03.254Z,0.60
2022-12-22T06:25:29.842Z,0.40
2022-12-22T06:27:56.468Z,0.55
2022-12-22T06:30:29.234Z,0.50
2022-12-22T06:33:00.666Z,0.50
2022-12-22T06:35:27.328Z,0.70
2022-12-22T06:37:53.987Z,0.50
2022-12-22T06:40:20.599Z,0.60
2022-12-22T06:43:08.821Z,0.80
2022-12-22T06:45:38.017Z,0.30
2022-12-22T06:48:05.008Z,0.47
2022-12-22T06:50:31.698Z,0.40
2022-12-22T06:52:58.292Z,0.70
2022-12-22T06:55:25.042Z,0.80
2022-12-22T06:57:51.654Z,0.80
2022-12-22T07:00:18.680Z,0.50
2022-12-22T07:02:45.376Z,0.70
2022-12-22T07:05:12.095Z,0.60
2022-12-22T07:07:38.728Z,0.80
2022-12-22T07:10:05.829Z,0.68
2022-12-22T07:12:32.379Z,0.73
2022-12-22T07:14:59.065Z,0.90
2022-12-22T07:17:25.619Z,0.70
2022-12-22T07:19:52.278Z,0.75
2022-12-22T07:22:21.709Z,0.85
2022-12-22T07:24:52.326Z,0.70
2022-12-22T07:27:18.893Z,0.80
2022-12-22T07:29:45.570Z,1.17
2022-12-22T07:32:12.173Z,3.95
2022-12-22T07:34:38.812Z,1.73
2022-12-22T07:37:05.683Z,0.60
2022-12-22T07:39:32.327Z,0.70
2022-12-22T07:42:17.574Z,0.63
2022-12-22T07:44:44.149Z,0.60
2022-12-22T07:47:10.699Z,0.60
2022-12-22T07:50:03.370Z,0.60
2022-12-22T07:52:29.932Z,0.68
2022-12-22T07:54:56.513Z,0.55
2022-12-22T07:57:23.547Z,0.70
2022-12-22T07:59:50.140Z,0.80
2022-12-22T08:02:16.843Z,0.73
2022-12-22T08:04:43.595Z,0.90
2022-12-22T08:07:10.276Z,0.70
2022-12-22T08:09:36.873Z,0.60
2022-12-22T08:12:03.831Z,0.70
2022-12-22T08:14:30.458Z,0.70
2022-12-22T08:16:57.779Z,0.80
2022-12-22T08:19:24.341Z,0.52
2022-12-22T08:21:53.255Z,0.70
2022-12-22T08:24:20.996Z,0.98
2022-12-22T08:26:52.103Z,0.80
2022-12-22T08:29:24.090Z,0.80
2022-12-22T08:31:51.030Z,1.00
2022-12-22T08:34:17.892Z,0.88
2022-12-22T08:36:49.660Z,0.70
2022-12-22T08:39:18.104Z,0.80
2022-12-22T08:41:51.060Z,0.75
2022-12-22T08:44:26.696Z,1.05
2022-12-22T08:46:55.694Z,1.00
2022-12-22T08:49:23.019Z,0.75
2022-12-22T08:51:50.577Z,0.60
2022-12-22T08:54:17.305Z,0.93
2022-12-22T08:56:44.262Z,0.82
2022-12-22T08:59:11.867Z,1.00
2022-12-22T09:01:42.620Z,0.88
2022-12-22T09:04:11.945Z,1.00
2022-12-22T09:06:40.910Z,0.77
2022-12-22T09:09:09.567Z,0.70
2022-12-22T09:11:36.241Z,0.70
2022-12-22T09:14:04.403Z,0.80
2022-12-22T09:16:32.710Z,0.60
2022-12-22T09:19:00.598Z,0.52
2022-12-22T09:21:28.122Z,0.60
2022-12-22T09:23:55.753Z,0.52
2022-12-22T09:26:24.408Z,0.70
2022-12-22T09:28:51.347Z,0.60
2022-12-22T09:31:22.688Z,0.60
2022-12-22T09:33:49.325Z,0.70
2022-12-22T09:36:22.035Z,0.60
2022-12-22T09:38:49.140Z,0.50
2022-12-22T09:41:22.324Z,0.60
2022-12-22T09:43:49.022Z,0.70
2022-12-22T09:46:29.395Z,1.50
2022-12-22T09:48:56.023Z,0.60
2022-12-22T09:51:27.071Z,1.10
2022-12-22T09:53:59.057Z,0.60
2022-12-22T09:56:27.952Z,0.57
2022-12-22T09:58:54.864Z,0.55
2022-12-22T10:01:39.191Z,0.65
2022-12-22T10:04:28.615Z,0.68
2022-12-22T10:07:13.584Z,0.70
2022-12-22T10:09:55.481Z,0.70
2022-12-22T10:12:26.318Z,0.50
2022-12-22T10:14:54.216Z,0.45
2022-12-22T10:17:23.184Z,0.40
2022-12-22T10:19:52.141Z,0.40
2022-12-22T10:22:27.466Z,0.30
2022-12-22T10:24:54.619Z,0.47
2022-12-22T10:27:28.731Z,0.40
2022-12-22T10:30:20.143Z,0.85
2022-12-22T10:33:19.078Z,1.05
2022-12-22T10:35:56.639Z,0.70
2022-12-22T10:38:52.718Z,0.65
2022-12-22T10:41:22.278Z,0.60
2022-12-22T10:44:05.976Z,1.20
2022-12-22T10:46:34.520Z,0.60
2022-12-22T10:49:25.345Z,0.50
2022-12-22T10:51:58.501Z,0.50
2022-12-22T10:54:36.215Z,0.98
2022-12-22T10:57:15.056Z,0.70
2022-12-22T10:59:52.179Z,0.75
2022-12-22T11:02:22.172Z,0.52
2022-12-22T11:04:50.290Z,0.70
2022-12-22T11:07:17.336Z,0.60
2022-12-22T11:09:44.313Z,0.30
2022-12-22T11:12:36.540Z,1.05
2022-12-22T11:15:29.128Z,0.50
2022-12-22T11:18:21.227Z,0.40
2022-12-22T11:21:06.605Z,0.80
2022-12-22T11:24:00.856Z,0.68
2022-12-22T11:26:51.194Z,0.50
2022-12-22T11:29:47.029Z,0.40
2022-12-22T11:32:38.269Z,0.47
2022-12-22T11:35:13.703Z,0.70
2022-12-22T11:37:48.250Z,0.50
2022-12-22T11:40:35.925Z,1.05
2022-12-22T11:43:14.364Z,0.60
2022-12-22T11:46:05.076Z,0.40
2022-12-22T11:48:46.539Z,0.60
2022-12-22T11:51:38.034Z,0.80
2022-12-22T11:54:25.715Z,0.80
2022-12-22T11:57:02.437Z,0.60
2022-12-22T11:59:37.760Z,0.45
2022-12-22T12:02:39.920Z,0.52
2022-12-22T12:05:27.817Z,0.60
2022-12-22T12:08:26.757Z,0.60
2022-12-22T12:11:18.362Z,0.80
2022-12-22T12:14:00.267Z,0.80
2022-12-22T12:16:49.931Z,0.80
2022-12-22T12:19:35.313Z,0.70
2022-12-22T12:22:05.219Z,0.80
2022-12-22T12:24:38.220Z,1.27
2022-12-22T12:27:40.119Z,0.80
2022-12-22T12:33:22.282Z,1.10
2022-12-22T12:35:48.786Z,0.90
2022-12-22T12:39:07.329Z,1.10
2022-12-22T12:41:56.764Z,1.50
2022-12-22T12:44:27.689Z,1.10
2022-12-22T12:47:03.868Z,1.10
2022-12-22T12:49:36.605Z,1.10
2022-12-22T12:52:10.734Z,0.90
2022-12-22T12:54:48.107Z,0.90
2022-12-22T12:57:46.492Z,0.70
2022-12-22T13:00:31.360Z,1.40
2022-12-22T13:03:25.238Z,0.82
2022-12-22T13:06:01.307Z,0.90
2022-12-22T13:08:32.493Z,0.80
2022-12-22T13:10:59.021Z,0.90
2022-12-22T13:13:25.521Z,1.13
2022-12-22T13:16:07.267Z,2.00
2022-12-22T13:18:33.944Z,1.40
2022-12-22T13:24:27.808Z,1.20
2022-12-22T13:27:00.601Z,1.00
2022-12-22T13:29:37.457Z,0.77
2022-12-22T13:32:14.273Z,1.00
2022-12-22T13:35:20.583Z,1.00
2022-12-22T13:37:40.570Z,1.85
2022-12-22T13:40:13.428Z,1.92
2022-12-22T13:42:45.213Z,2.30
2022-12-22T13:45:19.965Z,4.43
2022-12-22T13:47:48.287Z,1.30
2022-12-22T13:50:25.278Z,1.00
2022-12-22T13:52:54.326Z,1.13
2022-12-22T13:55:26.061Z,1.17
2022-12-22T13:57:58.484Z,0.80
2022-12-22T14:00:28.951Z,0.75
2022-12-22T14:02:55.808Z,0.90
2022-12-22T14:05:22.732Z,0.77
2022-12-22T14:08:06.466Z,0.80
2022-12-22T14:10:44.706Z,0.80
2022-12-22T14:13:16.242Z,1.20
2022-12-22T14:15:44.897Z,1.10
2022-12-22T14:18:23.748Z,0.98
2022-12-22T14:20:51.338Z,1.30
2022-12-22T14:23:22.499Z,1.20
2022-12-22T14:25:51.019Z,1.40
2022-12-22T14:28:38.155Z,1.03
2022-12-22T14:31:07.057Z,1.07
2022-12-22T14:33:35.044Z,1.00
2022-12-22T14:36:23.867Z,1.10
2022-12-22T14:38:55.963Z,1.00
2022-12-22T14:41:53.984Z,1.20
2022-12-22T14:44:25.575Z,1.00
2022-12-22T14:47:20.087Z,1.40
2022-12-22T14:49:51.691Z,1.30
2022-12-22T14:52:27.147Z,0.90
2022-12-22T14:54:55.216Z,0.70
2022-12-22T14:57:39.465Z,1.00
2022-12-22T15:00:10.528Z,0.90
2022-12-22T15:02:40.758Z,0.80
2022-12-22T15:05:25.304Z,1.10
2022-12-22T15:08:10.144Z,1.00
2022-12-22T15:10:43.292Z,1.00
2022-12-22T15:13:20.895Z,0.80
2022-12-22T15:15:47.524Z,1.00
2022-12-22T15:18:15.556Z,1.00
2022-12-22T15:20:42.470Z,0.70
2022-12-22T15:23:16.673Z,1.70
2022-12-22T15:25:43.337Z,2.47
2022-12-22T15:28:09.955Z,1.73
2022-12-22T15:30:36.859Z,3.60
2022-12-22T15:33:03.600Z,3.37
2022-12-22T15:35:34.895Z,4.20
2022-12-22T15:38:01.978Z,1.37
2022-12-22T15:40:28.825Z,1.20
2022-12-22T15:42:55.375Z,1.83
2022-12-22T15:45:22.682Z,1.23
2022-12-22T15:47:52.214Z,1.30
2022-12-22T15:50:26.607Z,1.30
2022-12-22T15:52:56.445Z,1.10
2022-12-22T15:55:24.630Z,1.30
2022-12-22T15:57:56.412Z,1.40
2022-12-22T16:00:23.628Z,1.00
2022-12-22T16:02:50.631Z,1.20
2022-12-22T16:05:18.423Z,1.20
2022-12-22T16:07:45.187Z,1.50
2022-12-22T16:10:23.445Z,1.80
2022-12-22T16:12:55.506Z,1.47
2022-12-22T16:15:22.478Z,1.20
2022-12-22T16:17:51.734Z,1.50
2022-12-22T16:20:19.125Z,1.60
2022-12-22T16:22:45.828Z,1.80
2022-12-22T16:25:16.529Z,1.50
2022-12-22T16:27:43.249Z,1.67
2022-12-22T16:30:18.753Z,1.70
2022-12-22T16:32:46.012Z,1.80
2022-12-22T16:35:12.512Z,2.17
2022-12-22T16:37:39.350Z,2.30
2022-12-22T16:40:07.054Z,2.10
2022-12-22T16:45:22.826Z,2.27
2022-12-22T16:47:54.291Z,2.90
2022-12-22T16:50:25.346Z,2.83
2022-12-22T16:52:51.975Z,2.70
2022-12-22T16:55:21.125Z,3.30
2022-12-22T16:57:48.382Z,3.13
2022-12-22T17:00:21.211Z,3.53
2022-12-22T17:03:02.271Z,3.17
2022-12-22T17:05:38.773Z,3.40
2022-12-22T17:08:19.641Z,3.10
2022-12-22T17:10:46.722Z,2.53
2022-12-22T17:13:13.347Z,3.13
2022-12-22T17:15:40.224Z,3.50
2022-12-22T17:18:15.511Z,2.83
2022-12-22T17:20:43.116Z,3.20
2022-12-22T17:23:28.404Z,2.60
2022-12-22T17:25:55.043Z,2.83
2022-12-22T17:28:21.706Z,4.63
2022-12-22T17:30:48.621Z,7.93
2022-12-22T17:33:16.910Z,5.93
2022-12-22T17:35:45.619Z,6.53
2022-12-22T17:38:18.417Z,3.53
2022-12-22T17:40:47.082Z,3.87
2022-12-22T17:43:15.884Z,3.87
2022-12-22T17:45:45.960Z,3.60
2022-12-22T17:48:16.887Z,5.17
2022-12-22T17:50:49.513Z,4.50
2022-12-22T17:53:20.602Z,4.40
2022-12-22T17:56:07.633Z,4.43
2022-12-22T17:58:34.427Z,4.13
2022-12-22T18:01:01.507Z,4.20
2022-12-22T18:03:28.113Z,4.17
2022-12-22T18:05:55.478Z,4.47
2022-12-22T18:08:22.323Z,4.83
2022-12-22T18:10:49.539Z,4.93
2022-12-22T18:13:20.735Z,4.63
2022-12-22T18:15:47.620Z,4.07
2022-12-22T18:18:16.312Z,4.50
2022-12-22T18:20:44.434Z,5.15
2022-12-22T18:23:23.605Z,4.80
2022-12-22T18:25:50.625Z,4.80
2022-12-22T18:28:17.761Z,4.97
2022-12-22T18:30:45.132Z,5.07
2022-12-22T18:33:12.104Z,5.33
2022-12-22T18:35:39.685Z,5.10
2022-12-22T18:38:07.308Z,4.63
2022-12-22T18:40:35.365Z,4.88
2022-12-22T18:43:03.259Z,4.70
2022-12-22T18:45:31.290Z,5.28
2022-12-22T18:47:57.977Z,4.70
2022-12-22T18:50:27.483Z,4.75
2022-12-22T18:52:57.192Z,4.57
2022-12-22T18:55:26.643Z,4.93
2022-12-22T18:57:55.103Z,4.47
2022-12-22T19:00:26.607Z,4.73
2022-12-22T19:02:56.869Z,4.93
2022-12-22T19:05:26.839Z,5.03
2022-12-22T19:07:54.302Z,5.17
2022-12-22T19:10:42.601Z,4.90
2022-12-22T19:13:38.911Z,5.15
2022-12-22T19:16:06.638Z,5.18
2022-12-22T19:18:33.367Z,5.05
2022-12-22T19:20:59.983Z,5.63
2022-12-22T19:23:27.126Z,4.70
2022-12-22T19:26:02.158Z,3.88
2022-12-22T19:28:41.589Z,5.03
2022-12-22T19:31:21.233Z,4.40
2022-12-22T19:33:49.978Z,4.68
2022-12-22T19:36:22.203Z,4.75
2022-12-22T19:38:51.220Z,4.57
2022-12-22T19:41:50.646Z,4.18
2022-12-22T19:44:26.730Z,4.38
2022-12-22T19:46:56.020Z,4.55
2022-12-22T19:49:27.549Z,4.57
2022-12-22T19:51:58.508Z,4.15
2022-12-22T19:54:25.924Z,3.93
2022-12-22T19:56:55.835Z,3.45
2022-12-22T19:59:37.370Z,3.90
2022-12-22T20:02:21.742Z,4.03
2022-12-22T20:04:50.350Z,4.10
2022-12-22T20:07:20.057Z,3.40
2022-12-22T20:09:47.651Z,3.88
2022-12-22T20:12:26.629Z,4.33
2022-12-22T20:14:53.541Z,4.03
2022-12-22T20:17:20.949Z,3.58
2022-12-22T20:19:47.582Z,3.25
2022-12-22T20:22:17.047Z,3.20
2022-12-22T20:24:45.133Z,3.08
2022-12-22T20:27:23.201Z,3.50
2022-12-22T20:29:49.778Z,3.40
2022-12-22T20:32:22.375Z,4.20
2022-12-22T20:34:53.808Z,4.53
2022-12-22T20:37:20.402Z,3.40
2022-12-22T20:39:47.049Z,4.22
2022-12-22T20:42:21.700Z,3.50
2022-12-22T20:45:03.956Z,3.15
2022-12-22T20:47:33.755Z,2.83
2022-12-22T20:50:00.495Z,2.70
2022-12-22T20:52:27.321Z,2.58
2022-12-22T20:54:53.914Z,3.20
2022-12-22T20:57:22.965Z,2.40
2022-12-22T20:59:55.654Z,2.47
2022-12-22T21:02:28.174Z,2.10
2022-12-22T21:04:55.528Z,2.05
2022-12-22T21:07:22.254Z,2.28
2022-12-22T21:09:49.028Z,2.10
2022-12-22T21:12:15.681Z,1.90
2022-12-22T21:14:42.294Z,1.55
2022-12-22T21:17:16.215Z,2.03
2022-12-22T21:19:42.952Z,1.90
2022-12-22T21:22:09.720Z,2.70
2022-12-22T21:24:36.419Z,2.33
2022-12-22T21:27:03.812Z,2.07
2022-12-22T21:29:30.854Z,2.00
2022-12-22T21:31:57.454Z,1.53
2022-12-22T21:34:24.077Z,1.90
2022-12-22T21:36:59.837Z,1.80
2022-12-22T21:39:41.918Z,1.73
2022-12-22T21:42:19.642Z,1.50
2022-12-22T21:44:46.705Z,1.50
2022-12-22T21:47:16.442Z,1.53
2022-12-22T21:49:43.212Z,1.80
2022-12-22T21:52:09.865Z,1.50
2022-12-22T21:54:36.413Z,1.50
2022-12-22T21:57:03.237Z,1.58
2022-12-22T21:59:29.802Z,1.60
2022-12-22T22:01:56.812Z,1.93
2022-12-22T22:04:24.387Z,2.05
2022-12-22T22:06:50.951Z,2.13
2022-12-22T22:09:17.599Z,2.00
2022-12-22T22:12:02.584Z,1.90
2022-12-22T22:14:29.210Z,1.90
2022-12-22T22:16:55.787Z,2.03
2022-12-22T22:19:22.359Z,2.10
2022-12-22T22:21:48.979Z,1.80
2022-12-22T22:24:15.552Z,1.70
2022-12-22T22:26:45.538Z,2.00
2022-12-22T22:29:12.191Z,1.80
2022-12-22T22:31:40.019Z,1.70
2022-12-22T22:34:06.596Z,1.45
2022-12-22T22:36:33.195Z,1.50
2022-12-22T22:38:59.773Z,1.20
2022-12-22T22:41:26.781Z,1.60
2022-12-22T22:43:56.185Z,1.50
2022-12-22T22:46:23.009Z,1.30
2022-12-22T22:48:49.665Z,1.07
2022-12-22T22:51:16.261Z,1.30
2022-12-22T22:53:42.878Z,1.30
2022-12-22T22:56:09.449Z,1.37
2022-12-22T22:58:36.141Z,1.30
2022-12-22T23:01:07.651Z,1.40
2022-12-22T23:03:34.433Z,1.77
2022-12-22T23:06:05.898Z,1.50
2022-12-22T23:08:33.588Z,1.47
2022-12-22T23:11:01.154Z,1.40
2022-12-22T23:13:28.016Z,1.50
2022-12-22T23:16:01.270Z,1.90
2022-12-22T23:18:29.689Z,1.57
2022-12-22T23:21:01.117Z,1.30
2022-12-22T23:23:28.793Z,3.67
2022-12-22T23:25:55.681Z,3.83
2022-12-22T23:28:22.281Z,2.17
2022-12-22T23:30:51.645Z,1.30
2022-12-22T23:33:19.201Z,1.53
2022-12-22T23:35:48.461Z,0.80
2022-12-22T23:38:15.269Z,0.90
2022-12-22T23:40:57.270Z,2.00
2022-12-22T23:43:24.324Z,1.57
2022-12-22T23:45:50.887Z,2.57
2022-12-22T23:48:17.441Z,2.60
2022-12-22T23:50:48.233Z,2.75
2022-12-22T23:53:16.091Z,2.03
2022-12-22T23:55:49.379Z,1.80
2022-12-22T23:58:16.715Z,1.70
